Time;durP1;ratioP1;P1;durP2;ratioP2;P2;SDS_P1;SDS_P2;PMS_P1;PMS_P2;Temp;Humidity;BMP_temperature;BMP_pressure;BME280_temperature;BME280_humidity;BME280_pressure;Samples;Min_cycle;Max_cycle;Signal;HPM_P1;HPM_P2
2021/03/29 00:00:38;;;;;;;;;;;;;;;6.46;59.55;101345.25;4348589;32;34728;-85
2021/03/29 00:03:04;;;;;;;;;;;;;;;6.47;59.54;101348.72;4349170;32;19998;-85
2021/03/29 00:05:30;;;;;;;;;;;;;;;6.31;59.53;101351.97;4349266;32;19967;-85
2021/03/29 00:07:57;;;;;;;;;;;;;;;6.28;59.54;101347.66;4337017;32;19999;-86
2021/03/29 00:10:23;;;;;;;;;;;;;;;6.21;59.54;101348.44;4362959;32;19987;-85
2021/03/29 00:12:48;;;;;;;;;;;;;;;6.14;59.53;101354.38;4348737;32;21991;-86
2021/03/29 00:15:15;;;;;;;;;;;;;;;6.07;59.52;101358.59;4337059;32;19975;-86
2021/03/29 00:17:41;;;;;;;;;;;;;;;6.19;59.52;101352.72;4349380;32;20007;-85
2021/03/29 00:20:12;;;;;;;;;;;;;;;6.08;59.52;101356.88;4349205;32;20002;-86
2021/03/29 00:22:38;;;;;;;;;;;;;;;6.08;59.52;101354.31;4362764;32;20049;-86
2021/03/29 00:25:03;;;;;;;;;;;;;;;5.89;59.50;101358.34;4336678;32;20019;-86
2021/03/29 00:27:28;;;;;;;;;;;;;;;5.87;59.51;101354.88;4348966;32;20006;-87
2021/03/29 00:29:53;;;;;;;;;;;;;;;6.04;59.52;101362.87;4348640;32;21106;-87
2021/03/29 00:32:19;;;;;;;;;;;;;;;5.91;59.52;101358.38;4348361;32;32286;-88
2021/03/29 00:34:44;;;;;;;;;;;;;;;5.97;59.51;101361.94;4348084;32;37700;-86
2021/03/29 00:37:09;;;;;;;;;;;;;;;6.05;59.51;101362.03;4348700;32;20252;-87
2021/03/29 00:39:36;;;;;;;;;;;;;;;6.05;59.51;101356.84;4348286;32;36466;-86
2021/03/29 00:42:01;;;;;;;;;;;;;;;6.07;59.52;101350.84;4348856;32;19983;-88
2021/03/29 00:44:26;;;;;;;;;;;;;;;6.00;59.52;101361.97;4349287;32;19991;-87
2021/03/29 00:46:51;;;;;;;;;;;;;;;6.02;59.52;101362.00;4348567;32;28504;-87
2021/03/29 00:49:17;;;;;;;;;;;;;;;5.98;59.52;101355.94;4348592;32;28446;-87
2021/03/29 00:51:42;;;;;;;;;;;;;;;5.98;59.51;101360.22;4348396;32;27463;-86
2021/03/29 00:54:07;;;;;;;;;;;;;;;5.99;59.52;101359.37;4349152;32;20057;-86
2021/03/29 00:56:32;;;;;;;;;;;;;;;5.77;59.50;101359.06;4348312;32;20013;-88
2021/03/29 00:58:58;;;;;;;;;;;;;;;5.99;59.52;101356.78;4348611;32;19991;-87
2021/03/29 01:01:24;;;;;;;;;;;;;;;5.82;59.51;101359.97;4348860;32;20029;-87
2021/03/29 01:03:54;;;;;;;;;;;;;;;6.00;59.52;101358.53;4336628;32;20004;-88
2021/03/29 01:06:20;;;;;;;;;;;;;;;5.98;59.51;101365.41;4349040;32;20507;-87
2021/03/29 01:08:49;;;;;;;;;;;;;;;6.07;59.52;101363.78;4362766;32;20006;-88
2021/03/29 01:11:15;;;;;;;;;;;;;;;6.02;59.52;101365.44;4349121;32;20043;-88
2021/03/29 01:13:47;;;;;;;;;;;;;;;5.84;59.51;101363.47;4349011;32;20031;-88
2021/03/29 01:16:14;;;;;;;;;;;;;;;5.97;59.51;101367.12;4336592;32;20004;-88
2021/03/29 01:18:39;;;;;;;;;;;;;;;5.98;59.51;101379.19;4348877;32;20062;-88
2021/03/29 01:21:04;;;;;;;;;;;;;;;5.94;59.51;101369.66;4348207;32;34324;-88
2021/03/29 01:23:29;;;;;;;;;;;;;;;5.87;59.51;101372.97;4361360;32;20006;-87
2021/03/29 01:25:57;;;;;;;;;;;;;;;5.90;59.50;101372.16;4348680;32;20360;-88
2021/03/29 01:28:22;;;;;;;;;;;;;;;5.78;59.51;101372.84;4348931;32;19991;-87
2021/03/29 01:30:47;;;;;;;;;;;;;;;5.93;59.51;101367.94;4348769;32;20026;-87
2021/03/29 01:33:13;;;;;;;;;;;;;;;5.89;59.51;101365.22;4348578;32;20324;-86
2021/03/29 01:35:45;;;;;;;;;;;;;;;5.79;59.50;101366.84;4348061;32;30388;-86
2021/03/29 01:38:10;;;;;;;;;;;;;;;5.74;59.50;101365.91;4348537;32;20006;-85
2021/03/29 01:40:36;;;;;;;;;;;;;;;5.94;59.51;101368.78;4347775;32;36911;-87
2021/03/29 01:43:02;;;;;;;;;;;;;;;5.73;59.50;101365.03;4348747;32;20039;-88
2021/03/29 01:45:27;;;;;;;;;;;;;;;5.74;59.49;101361.63;4349002;32;20388;-87
2021/03/29 01:47:52;;;;;;;;;;;;;;;5.67;59.49;101361.47;4348769;32;20002;-86
2021/03/29 01:50:21;;;;;;;;;;;;;;;5.61;59.50;101359.69;4347885;32;35995;-86
2021/03/29 01:52:46;;;;;;;;;;;;;;;5.47;59.48;101361.22;4348658;32;19998;-87
2021/03/29 01:55:11;;;;;;;;;;;;;;;5.46;59.49;101355.19;4362268;32;19983;-87
2021/03/29 01:57:36;;;;;;;;;;;;;;;5.53;59.49;101353.56;4348456;32;20026;-87
2021/03/29 02:00:09;;;;;;;;;;;;;;;5.51;59.48;101353.53;4347922;32;20201;-86
2021/03/29 02:02:34;;;;;;;;;;;;;;;5.57;59.49;101357.06;4348350;32;20332;-87
2021/03/29 02:05:00;;;;;;;;;;;;;;;5.50;59.49;101349.22;4348212;32;19995;-86
2021/03/29 02:07:25;;;;;;;;;;;;;;;5.61;59.49;101345.91;4362079;32;19983;-85
2021/03/29 02:09:50;;;;;;;;;;;;;;;5.47;59.48;101345.75;4347765;32;19994;-84
2021/03/29 02:12:16;;;;;;;;;;;;;;;5.48;59.49;101347.47;4347882;32;23765;-84
2021/03/29 02:14:41;;;;;;;;;;;;;;;5.45;59.48;101339.69;4347888;32;20028;-84
2021/03/29 02:17:07;;;;;;;;;;;;;;;5.65;59.49;101345.09;4348086;32;20356;-85
2021/03/29 02:19:32;;;;;;;;;;;;;;;5.57;59.49;101345.00;4360722;32;19978;-86
2021/03/29 02:21:57;;;;;;;;;;;;;;;5.67;59.49;101346.84;4348361;32;20135;-85
2021/03/29 02:24:23;;;;;;;;;;;;;;;5.64;59.50;101344.22;4347751;32;30540;-84
2021/03/29 02:26:48;;;;;;;;;;;;;;;6.02;59.51;101344.75;4348129;32;19995;-85
2021/03/29 02:29:17;;;;;;;;;;;;;;;5.65;59.49;101343.38;4347402;32;29791;-84
2021/03/29 02:31:42;;;;;;;;;;;;;;;5.67;59.49;101343.41;4348105;32;20046;-84
2021/03/29 02:34:07;;;;;;;;;;;;;;;5.51;59.48;101343.22;4347562;32;20690;-84
2021/03/29 02:36:32;;;;;;;;;;;;;;;5.64;59.49;101338.19;4348030;32;20320;-84
2021/03/29 02:38:58;;;;;;;;;;;;;;;5.53;59.49;101343.22;4347368;32;30802;-84
2021/03/29 02:41:23;;;;;;;;;;;;;;;5.64;59.50;101348.53;4347755;32;20315;-84
2021/03/29 02:43:49;;;;;;;;;;;;;;;5.59;59.49;101352.78;4335641;32;19987;-85
2021/03/29 02:46:14;;;;;;;;;;;;;;;5.47;59.48;101343.16;4347999;32;19991;-85
2021/03/29 02:48:40;;;;;;;;;;;;;;;5.56;59.49;101338.09;4347799;32;20332;-85
2021/03/29 02:51:06;;;;;;;;;;;;;;;5.44;59.48;101336.22;4361596;32;19999;-84
2021/03/29 02:53:32;;;;;;;;;;;;;;;5.44;59.48;101341.41;4347754;32;20324;-85
2021/03/29 02:55:58;;;;;;;;;;;;;;;5.40;59.48;101343.88;4347990;32;20018;-85
2021/03/29 02:58:24;;;;;;;;;;;;;;;5.44;59.48;101348.25;4361528;32;19983;-85
2021/03/29 03:00:49;;;;;;;;;;;;;;;5.52;59.49;101344.06;4347627;32;20245;-84
2021/03/29 03:03:14;;;;;;;;;;;;;;;5.54;59.49;101343.25;4347728;32;20003;-85
2021/03/29 03:05:39;;;;;;;;;;;;;;;5.58;59.49;101341.56;4347314;32;22050;-85
2021/03/29 03:08:05;;;;;;;;;;;;;;;5.63;59.49;101345.06;4347489;32;20270;-86
2021/03/29 03:10:31;;;;;;;;;;;;;;;5.73;59.50;101341.78;4347640;32;20006;-85
2021/03/29 03:12:57;;;;;;;;;;;;;;;5.76;59.51;101341.81;4347610;32;20034;-85
2021/03/29 03:15:23;;;;;;;;;;;;;;;5.80;59.50;101346.19;4335294;32;20002;-86
2021/03/29 03:17:48;;;;;;;;;;;;;;;5.74;59.50;101351.28;4359832;32;20006;-85
2021/03/29 03:20:14;;;;;;;;;;;;;;;5.76;59.50;101351.28;4347737;32;20742;-85
2021/03/29 03:22:49;;;;;;;;;;;;;;;5.92;59.51;101342.06;4363329;32;19989;-84
2021/03/29 03:25:34;;;;;;;;;;;;;;;6.05;59.51;101342.22;4363226;32;20045;-84
2021/03/29 03:28:00;;;;;;;;;;;;;;;5.93;59.51;101343.81;4363156;32;19983;-84
2021/03/29 03:30:29;;;;;;;;;;;;;;;5.90;59.50;101341.16;4361894;32;20069;-84
2021/03/29 03:32:54;;;;;;;;;;;;;;;5.84;59.51;101336.75;4337415;32;20007;-85
2021/03/29 03:35:20;;;;;;;;;;;;;;;6.06;59.52;101337.91;4349948;32;19983;-85
2021/03/29 03:38:04;;;;;;;;;;;;;;;6.09;59.52;101332.78;4363482;32;20301;-86
2021/03/29 03:40:29;;;;;;;;;;;;;;;5.99;59.51;101326.62;4363053;32;20407;-85
2021/03/29 03:43:02;;;;;;;;;;;;;;;6.04;59.51;101321.53;4349290;32;20003;-84
2021/03/29 03:45:28;;;;;;;;;;;;;;;6.02;59.51;101321.50;4349445;32;20038;-85
2021/03/29 03:47:53;;;;;;;;;;;;;;;6.17;59.52;101326.00;4349351;32;20030;-85
2021/03/29 03:50:19;;;;;;;;;;;;;;;6.13;59.51;101319.03;4349351;32;20019;-86
2021/03/29 03:52:45;;;;;;;;;;;;;;;6.29;59.53;101320.06;4349264;32;20002;-85
2021/03/29 03:55:10;;;;;;;;;;;;;;;6.34;59.53;101319.25;4348699;32;32067;-85
2021/03/29 03:57:36;;;;;;;;;;;;;;;6.25;59.53;101321.75;4349384;32;20014;-86
2021/03/29 04:00:01;;;;;;;;;;;;;;;6.18;59.52;101319.97;4336742;32;19990;-86
2021/03/29 04:02:27;;;;;;;;;;;;;;;6.28;59.52;101318.34;4349217;32;20493;-87
2021/03/29 04:04:52;;;;;;;;;;;;;;;6.38;59.53;101315.84;4349383;32;19999;-86
2021/03/29 04:07:17;;;;;;;;;;;;;;;6.32;59.53;101320.09;4361352;32;20426;-85
2021/03/29 04:09:53;;;;;;;;;;;;;;;6.24;59.52;101319.16;4348431;32;28714;-85
2021/03/29 04:12:18;;;;;;;;;;;;;;;6.25;59.52;101321.75;4350371;32;19987;-85
2021/03/29 04:14:43;;;;;;;;;;;;;;;6.15;59.52;101322.50;4349065;32;20002;-84
2021/03/29 04:17:08;;;;;;;;;;;;;;;6.40;59.54;101328.81;4348528;32;26079;-84
2021/03/29 04:19:34;;;;;;;;;;;;;;;6.22;59.53;101326.91;4348386;32;28907;-83
2021/03/29 04:21:59;;;;;;;;;;;;;;;6.19;59.52;101329.47;4336630;32;20349;-83
2021/03/29 04:24:24;;;;;;;;;;;;;;;6.19;59.52;101334.63;4336824;32;20021;-83
2021/03/29 04:26:49;;;;;;;;;;;;;;;6.33;59.53;101327.00;4360877;32;27587;-84
2021/03/29 04:29:15;;;;;;;;;;;;;;;6.13;59.53;101334.53;4348326;32;30165;-84
2021/03/29 04:31:40;;;;;;;;;;;;;;;6.08;59.52;101331.91;4360993;32;20002;-84
2021/03/29 04:34:05;;;;;;;;;;;;;;;6.26;59.53;101338.13;4349066;32;20301;-83
2021/03/29 04:36:30;;;;;;;;;;;;;;;6.23;59.53;101341.56;4349110;32;20014;-83
2021/03/29 04:38:56;;;;;;;;;;;;;;;6.19;59.52;101344.97;4348970;32;19979;-83
2021/03/29 04:41:21;;;;;;;;;;;;;;;6.42;59.54;101340.91;4349017;32;19995;-84
2021/03/29 04:43:46;;;;;;;;;;;;;;;6.45;59.54;101338.34;4348928;32;19995;-84
2021/03/29 04:46:11;;;;;;;;;;;;;;;6.58;59.55;101346.22;4348961;32;20011;-84
2021/03/29 04:48:36;;;;;;;;;;;;;;;6.54;59.55;101347.06;4361901;32;33559;-83
2021/03/29 04:51:02;;;;;;;;;;;;;;;6.64;59.55;101346.31;4348886;32;20324;-83
2021/03/29 04:53:27;;;;;;;;;;;;;;;6.67;59.56;101348.91;4362601;32;20015;-83
2021/03/29 04:55:52;;;;;;;;;;;;;;;6.72;59.56;101350.69;4348174;32;29558;-84
2021/03/29 04:58:17;;;;;;;;;;;;;;;6.71;59.55;101355.84;4361982;32;26635;-83
2021/03/29 05:00:43;;;;;;;;;;;;;;;7.06;59.57;101349.25;4361708;32;36265;-85
2021/03/29 05:03:08;;;;;;;;;;;;;;;6.95;59.57;101348.31;4348290;32;27395;-83
2021/03/29 05:05:33;;;;;;;;;;;;;;;6.98;59.57;101347.47;4348395;32;25389;-83
2021/03/29 05:07:58;;;;;;;;;;;;;;;6.99;59.57;101352.66;4348211;32;27951;-83
2021/03/29 05:10:23;;;;;;;;;;;;;;;7.15;59.57;101353.66;4361767;32;30622;-83
2021/03/29 05:12:49;;;;;;;;;;;;;;;7.08;59.57;101355.28;4361831;32;28633;-84
2021/03/29 05:15:14;;;;;;;;;;;;;;;7.30;59.58;101358.06;4361034;32;20001;-84
2021/03/29 05:17:39;;;;;;;;;;;;;;;7.34;59.59;101362.41;4362453;32;20367;-84
2021/03/29 05:20:05;;;;;;;;;;;;;;;7.44;59.60;101361.63;4360158;32;37045;-84
2021/03/29 05:22:30;;;;;;;;;;;;;;;7.54;59.60;101372.87;4348525;32;20038;-83
2021/03/29 05:24:55;;;;;;;;;;;;;;;7.65;59.60;101377.31;4362391;32;20009;-86
2021/03/29 05:27:20;;;;;;;;;;;;;;;7.75;59.61;101378.19;4361965;32;26452;-86
2021/03/29 05:29:46;;;;;;;;;;;;;;;7.59;59.60;101381.59;4361735;32;29519;-86
2021/03/29 05:32:19;;;;;;;;;;;;;;;7.70;59.62;101377.31;4362425;32;20042;-86
2021/03/29 05:34:45;;;;;;;;;;;;;;;7.99;59.63;101374.88;4348811;32;20312;-91
2021/03/29 05:37:10;;;;;;;;;;;;;;;8.05;59.62;101369.72;4348574;32;19990;-86
2021/03/29 05:39:35;;;;;;;;;;;;;;;8.27;59.64;101370.66;4348661;32;20346;-88
2021/03/29 05:42:00;;;;;;;;;;;;;;;8.34;59.64;101381.97;4360901;32;20281;-87
2021/03/29 05:44:26;;;;;;;;;;;;;;;8.43;59.65;101385.44;4347823;32;19994;-87
2021/03/29 05:46:51;;;;;;;;;;;;;;;8.74;59.66;101372.53;4362388;32;19967;-87
2021/03/29 05:49:16;;;;;;;;;;;;;;;8.98;59.69;101384.66;4347838;32;29663;-87
2021/03/29 05:51:41;;;;;;;;;;;;;;;9.24;59.69;101382.97;4347667;32;34347;-87
2021/03/29 05:54:07;;;;;;;;;;;;;;;9.35;59.71;101383.81;4348445;32;20014;-87
2021/03/29 05:56:33;;;;;;;;;;;;;;;9.75;59.73;101375.94;4348711;32;20029;-87
2021/03/29 05:59:16;;;;;;;;;;;;;;;10.13;59.75;101376.66;4348436;32;20835;-86
2021/03/29 06:01:51;;;;;;;;;;;;;;;10.39;59.76;101375.72;4348361;32;20469;-87
2021/03/29 06:04:36;;;;;;;;;;;;;;;10.48;59.76;101370.47;4348597;32;20042;-88
2021/03/29 06:07:22;;;;;;;;;;;;;;;10.93;59.79;101368.44;4362194;32;19994;-88
2021/03/29 06:09:47;;;;;;;;;;;;;;;10.93;59.79;101364.09;4361520;32;19979;-87
2021/03/29 06:12:13;;;;;;;;;;;;;;;11.16;59.80;101363.91;4336218;32;19997;-87
2021/03/29 06:14:39;;;;;;;;;;;;;;;11.37;59.82;101366.31;4336225;32;19983;-88
2021/03/29 06:17:05;;;;;;;;;;;;;;;11.61;59.83;101367.81;4348585;32;19988;-88
2021/03/29 06:19:41;;;;;;;;;;;;;;;11.95;59.84;101355.28;4335565;32;20408;-87
2021/03/29 06:22:07;;;;;;;;;;;;;;;12.12;59.85;101362.03;4348356;32;20355;-88
2021/03/29 06:24:49;;;;;;;;;;;;;;;12.29;59.87;101349.63;4335249;32;20343;-87
2021/03/29 06:27:14;;;;;;;;;;;;;;;12.47;59.87;101353.72;4335370;32;20617;-87
2021/03/29 06:29:40;;;;;;;;;;;;;;;12.58;59.88;101357.06;4360534;32;33850;-89
2021/03/29 06:32:05;;;;;;;;;;;;;;;13.05;59.91;101352.84;4347545;32;20062;-88
2021/03/29 06:34:34;;;;;;;;;;;;;;;13.23;59.91;101363.00;4347335;32;20028;-89
2021/03/29 06:37:05;;;;;;;;;;;;;;;13.41;59.92;101354.84;4347640;32;19987;-89
2021/03/29 06:39:31;;;;;;;;;;;;;;;13.48;59.92;101353.84;4347351;32;20019;-88
2021/03/29 06:41:56;;;;;;;;;;;;;;;13.89;59.95;101362.66;4346797;32;22439;-88
2021/03/29 06:44:24;;;;;;;;;;;;;;;14.13;59.96;101358.69;4334970;32;20061;-88
2021/03/29 06:46:50;;;;;;;;;;;;;;;14.18;59.97;101351.56;4359593;32;20011;-89
2021/03/29 06:49:15;;;;;;;;;;;;;;;14.49;59.98;101354.44;4346563;32;25902;-89
2021/03/29 06:51:42;;;;;;;;;;;;;;;14.55;59.98;101351.66;4346392;32;26999;-89
2021/03/29 06:54:08;;;;;;;;;;;;;;;14.55;59.98;101356.06;4347719;32;20051;-88
2021/03/29 06:56:34;;;;;;;;;;;;;;;14.70;60.00;101356.56;4349436;32;19998;-89
2021/03/29 06:59:02;;;;;;;;;;;;;;;14.78;60.01;101364.25;4336754;32;20003;-89
2021/03/29 07:01:28;;;;;;;;;;;;;;;14.89;60.00;101358.72;4362656;32;19997;-88
2021/03/29 07:03:53;;;;;;;;;;;;;;;15.14;60.01;101353.75;4348909;32;19999;-88
2021/03/29 07:06:22;;;;;;;;;;;;;;;15.13;60.02;101354.63;4348813;32;20005;-88
2021/03/29 07:08:48;;;;;;;;;;;;;;;15.30;60.03;101352.47;4348793;32;20017;-87
2021/03/29 07:11:13;;;;;;;;;;;;;;;15.59;60.04;101352.56;4348708;32;19999;-88
2021/03/29 07:13:39;;;;;;;;;;;;;;;15.75;60.05;101349.53;4348570;32;19995;-89
2021/03/29 07:16:04;;;;;;;;;;;;;;;15.66;60.05;101345.41;4336363;32;19991;-89
2021/03/29 07:18:29;;;;;;;;;;;;;;;15.76;60.05;101351.25;4348793;32;20011;-89
2021/03/29 07:20:55;;;;;;;;;;;;;;;16.06;60.07;101349.53;4348080;32;25517;-89
2021/03/29 07:23:20;;;;;;;;;;;;;;;16.16;60.08;101351.84;4348634;32;20018;-88
2021/03/29 07:25:46;;;;;;;;;;;;;;;16.26;60.08;101347.16;4348329;32;26689;-88
2021/03/29 07:28:11;;;;;;;;;;;;;;;16.40;60.09;101341.50;4348851;32;20015;-88
2021/03/29 07:30:42;;;;;;;;;;;;;;;16.53;60.09;101338.44;4348111;32;26593;-88
2021/03/29 07:33:09;;;;;;;;;;;;;;;16.74;60.10;101338.69;4362523;32;20317;-89
2021/03/29 07:35:49;;;;;;;;;;;;;;;16.99;60.11;101338.75;4348804;32;19978;-89
2021/03/29 07:38:14;;;;;;;;;;;;;;;17.07;60.12;101336.75;4336298;32;20143;-88
2021/03/29 07:40:40;;;;;;;;;;;;;;;17.31;60.14;101337.69;4348449;32;20377;-88
2021/03/29 07:43:11;;;;;;;;;;;;;;;17.44;60.14;101342.47;4336073;32;19979;-89
2021/03/29 07:45:36;;;;;;;;;;;;;;;17.55;60.15;101349.13;4336407;32;19971;-89
2021/03/29 07:48:01;;;;;;;;;;;;;;;17.58;60.15;101351.66;4362314;32;19987;-89
2021/03/29 07:50:26;;;;;;;;;;;;;;;17.45;60.14;101349.44;4348681;32;20030;-89
2021/03/29 07:52:52;;;;;;;;;;;;;;;17.30;60.15;101350.00;4360931;32;20042;-89
2021/03/29 07:55:37;;;;;;;;;;;;;;;17.21;60.13;101347.66;4348765;32;20034;-89
2021/03/29 07:58:03;;;;;;;;;;;;;;;17.35;60.14;101352.47;4348490;32;20849;-87
2021/03/29 08:00:32;;;;;;;;;;;;;;;17.34;60.14;101356.00;4336485;32;20017;-88
2021/03/29 08:02:57;;;;;;;;;;;;;;;17.24;60.14;101365.97;4360464;32;19991;-88
2021/03/29 08:05:35;;;;;;;;;;;;;;;17.07;60.12;101368.31;4349058;32;19993;-88
2021/03/29 08:08:03;;;;;;;;;;;;;;;16.91;60.11;101352.16;4336345;32;19995;-87
2021/03/29 08:10:48;;;;;;;;;;;;;;;17.15;60.13;101359.25;4348499;32;20014;-87
2021/03/29 08:13:15;;;;;;;;;;;;;;;17.27;60.14;101362.37;4348248;32;19991;-88
2021/03/29 08:15:59;;;;;;;;;;;;;;;17.39;60.15;101357.56;4336087;32;20006;-89
2021/03/29 08:18:24;;;;;;;;;;;;;;;17.54;60.16;101356.19;4336232;32;20007;-89
2021/03/29 08:20:53;;;;;;;;;;;;;;;17.68;60.17;101361.81;4348593;32;20378;-89
2021/03/29 08:23:47;;;;;;;;;;;;;;;17.83;60.16;101365.69;4348780;32;19988;-90
2021/03/29 08:26:21;;;;;;;;;;;;;;;17.35;60.14;101363.84;4357799;32;19995;-88
2021/03/29 08:29:05;;;;;;;;;;;;;;;17.72;60.16;101370.47;4348282;32;19996;-88
2021/03/29 08:31:49;;;;;;;;;;;;;;;17.95;60.17;101359.09;4360574;32;19999;-88
2021/03/29 08:34:18;;;;;;;;;;;;;;;18.03;60.18;101355.28;4362304;32;20044;-87
2021/03/29 08:36:43;;;;;;;;;;;;;;;18.03;60.18;101368.47;4360536;32;19979;-88
2021/03/29 08:39:08;;;;;;;;;;;;;;;17.86;60.17;101362.94;4347175;32;37550;-88
2021/03/29 08:41:33;;;;;;;;;;;;;;;17.87;60.17;101363.81;4347418;32;32652;-88
2021/03/29 08:43:59;;;;;;;;;;;;;;;18.17;60.19;101364.44;4348113;32;20073;-89
2021/03/29 08:46:25;;;;;;;;;;;;;;;18.15;60.18;101374.19;4348230;32;19999;-88
2021/03/29 08:48:50;;;;;;;;;;;;;;;18.16;60.19;101366.22;4348537;32;20063;-88
2021/03/29 08:51:20;;;;;;;;;;;;;;;18.38;60.20;101368.87;4346100;32;30489;-88
2021/03/29 08:53:45;;;;;;;;;;;;;;;18.42;60.20;101363.44;4335879;32;19983;-87
2021/03/29 08:56:10;;;;;;;;;;;;;;;18.48;60.20;101365.00;4361729;32;31856;-87
2021/03/29 08:58:36;;;;;;;;;;;;;;;18.37;60.20;101369.81;4361771;32;28528;-87
2021/03/29 09:01:02;;;;;;;;;;;;;;;18.29;60.19;101367.47;4348394;32;19991;-87
2021/03/29 09:03:27;;;;;;;;;;;;;;;18.35;60.20;101372.50;4361489;32;34048;-88
2021/03/29 09:05:52;;;;;;;;;;;;;;;18.26;60.19;101372.87;4348660;32;20014;-88
2021/03/29 09:08:18;;;;;;;;;;;;;;;18.14;60.18;101373.31;4347956;32;24137;-88
2021/03/29 09:10:44;;;;;;;;;;;;;;;18.15;60.18;101374.19;4346146;32;19996;-87
2021/03/29 09:13:13;;;;;;;;;;;;;;;18.42;60.20;101375.75;4345790;33;19990;-88
2021/03/29 09:15:39;;;;;;;;;;;;;;;18.52;60.20;101368.38;4346076;33;20050;-87
2021/03/29 09:18:05;;;;;;;;;;;;;;;18.73;60.21;101364.06;4345080;33;20011;-87
2021/03/29 09:20:34;;;;;;;;;;;;;;;19.00;60.24;101352.37;4347308;32;20026;-87
2021/03/29 09:22:59;;;;;;;;;;;;;;;18.94;60.23;101357.91;4358169;32;20017;-86
2021/03/29 09:25:25;;;;;;;;;;;;;;;18.78;60.22;101357.66;4346149;33;20546;-86
2021/03/29 09:28:11;;;;;;;;;;;;;;;18.76;60.23;101354.25;4344922;33;20389;-85
2021/03/29 09:30:37;;;;;;;;;;;;;;;18.61;60.21;101360.09;4335808;32;20050;-85
2021/03/29 09:33:02;;;;;;;;;;;;;;;18.86;60.23;101352.06;4346653;33;19987;-84
2021/03/29 09:35:27;;;;;;;;;;;;;;;18.98;60.23;101354.22;4344317;33;32300;-85
2021/03/29 09:37:52;;;;;;;;;;;;;;;19.00;60.24;101350.59;4345210;33;20404;-84
2021/03/29 09:40:18;;;;;;;;;;;;;;;19.10;60.24;101353.69;4332311;33;31593;-85
2021/03/29 09:42:53;;;;;;;;;;;;;;;19.29;60.24;101356.44;4346816;33;19999;-85
2021/03/29 09:45:25;;;;;;;;;;;;;;;19.44;60.25;101354.91;4345817;33;19990;-85
2021/03/29 09:48:06;;;;;;;;;;;;;;;19.63;60.27;101353.19;4345335;33;20361;-86
2021/03/29 09:50:33;;;;;;;;;;;;;;;19.85;60.28;101356.59;4345334;33;20603;-85
2021/03/29 09:53:07;;;;;;;;;;;;;;;19.67;60.27;101352.16;4346933;33;20358;-85
2021/03/29 09:55:39;;;;;;;;;;;;;;;19.77;60.28;101352.59;4345358;33;19990;-85
2021/03/29 09:58:04;;;;;;;;;;;;;;;19.63;60.27;101353.19;4346529;32;20501;-85
2021/03/29 10:00:33;;;;;;;;;;;;;;;19.71;60.27;101351.09;4345274;33;21495;-86
2021/03/29 10:03:01;;;;;;;;;;;;;;;19.75;60.27;101349.19;4357878;32;20446;-87
2021/03/29 10:05:32;;;;;;;;;;;;;;;19.72;60.28;101339.59;4346394;33;20091;-85
2021/03/29 10:07:57;;;;;;;;;;;;;;;20.13;60.29;101342.16;4345494;33;20281;-85
2021/03/29 10:10:29;;;;;;;;;;;;;;;20.04;60.29;101343.41;4344963;33;19994;-85
2021/03/29 10:13:11;;;;;;;;;;;;;;;20.06;60.28;101338.91;4344646;33;20499;-85
2021/03/29 10:15:37;;;;;;;;;;;;;;;20.04;60.29;101342.56;4345863;32;20009;-85
2021/03/29 10:18:09;;;;;;;;;;;;;;;20.26;60.30;101330.06;4346539;32;20001;-86
2021/03/29 10:20:35;;;;;;;;;;;;;;;20.59;60.31;101321.50;4346620;32;19988;-85
2021/03/29 10:23:19;;;;;;;;;;;;;;;20.55;60.32;101323.41;4357403;32;20005;-85
2021/03/29 10:25:44;;;;;;;;;;;;;;;20.50;60.32;101317.50;4357730;32;19990;-85
2021/03/29 10:28:16;;;;;;;;;;;;;;;20.68;60.32;101313.09;4357800;32;20675;-85
2021/03/29 10:30:41;;;;;;;;;;;;;;;20.65;60.32;101316.75;4332709;33;19991;-84
2021/03/29 10:33:06;;;;;;;;;;;;;;;20.72;60.33;101312.88;4344756;33;28494;-85
2021/03/29 10:35:32;;;;;;;;;;;;;;;20.78;60.33;101309.06;4345399;33;20010;-85
2021/03/29 10:37:57;;;;;;;;;;;;;;;20.75;60.33;101307.41;4346717;32;20002;-84
2021/03/29 10:40:23;;;;;;;;;;;;;;;20.67;60.32;101308.75;4332386;33;20349;-84
2021/03/29 10:42:48;;;;;;;;;;;;;;;20.79;60.33;101306.31;4344617;33;20015;-84
2021/03/29 10:45:14;;;;;;;;;;;;;;;20.58;60.31;101311.81;4346498;33;19995;-85
2021/03/29 10:47:40;;;;;;;;;;;;;;;20.31;60.30;101300.75;4357502;32;19995;-85
2021/03/29 10:50:05;;;;;;;;;;;;;;;20.35;60.31;101289.97;4345089;33;20290;-84
2021/03/29 10:52:31;;;;;;;;;;;;;;;20.63;60.33;101286.03;4346500;33;20023;-85
2021/03/29 10:54:56;;;;;;;;;;;;;;;20.72;60.33;101283.75;4346343;33;20007;-85
2021/03/29 10:57:21;;;;;;;;;;;;;;;20.94;60.34;101282.69;4356500;32;35573;-85
2021/03/29 10:59:46;;;;;;;;;;;;;;;21.11;60.35;101280.91;4344644;33;20047;-86
2021/03/29 11:02:12;;;;;;;;;;;;;;;21.20;60.36;101273.41;4343964;33;32334;-85
2021/03/29 11:04:37;;;;;;;;;;;;;;;21.28;60.35;101263.28;4332408;33;20006;-85
2021/03/29 11:07:02;;;;;;;;;;;;;;;21.00;60.34;101271.78;4343667;33;28020;-85
2021/03/29 11:09:28;;;;;;;;;;;;;;;20.91;60.33;101272.25;4356173;32;20361;-85
2021/03/29 11:11:53;;;;;;;;;;;;;;;21.03;60.34;101263.66;4346067;32;20053;-85
2021/03/29 11:14:20;;;;;;;;;;;;;;;21.13;60.35;101263.13;4345817;32;20015;-85
2021/03/29 11:16:45;;;;;;;;;;;;;;;21.20;60.35;101262.81;4344131;33;20063;-85
2021/03/29 11:19:10;;;;;;;;;;;;;;;21.11;60.35;101257.06;4343303;33;20254;-85
2021/03/29 11:21:36;;;;;;;;;;;;;;;21.44;60.37;101257.09;4345647;33;20340;-85
2021/03/29 11:24:01;;;;;;;;;;;;;;;21.79;60.39;101258.81;4343508;33;24233;-85
2021/03/29 11:26:27;;;;;;;;;;;;;;;21.88;60.39;101256.50;4345025;33;35323;-85
2021/03/29 11:28:52;;;;;;;;;;;;;;;21.71;60.39;101256.56;4344634;33;20010;-85
2021/03/29 11:31:20;;;;;;;;;;;;;;;21.47;60.36;101255.22;4343848;33;22734;-84
2021/03/29 11:33:45;;;;;;;;;;;;;;;21.44;60.36;101243.87;4344642;33;19997;-84
2021/03/29 11:36:10;;;;;;;;;;;;;;;21.56;60.38;101245.00;4345112;33;27318;-85
2021/03/29 11:38:37;;;;;;;;;;;;;;;21.65;60.38;101241.00;4356231;32;19995;-85
2021/03/29 11:41:03;;;;;;;;;;;;;;;21.85;60.38;101232.81;4344286;33;19984;-85
2021/03/29 11:43:28;;;;;;;;;;;;;;;22.08;60.40;101230.72;4346420;33;20331;-85
2021/03/29 11:45:53;;;;;;;;;;;;;;;22.36;60.42;101222.88;4345696;33;29072;-85
2021/03/29 11:48:18;;;;;;;;;;;;;;;22.59;60.43;101217.09;4347004;33;25357;-85
2021/03/29 11:50:44;;;;;;;;;;;;;;;22.81;60.44;101213.19;4346834;33;34300;-85
2021/03/29 11:53:09;;;;;;;;;;;;;;;22.82;60.44;101210.47;4345365;33;30881;-84
2021/03/29 11:55:34;;;;;;;;;;;;;;;22.72;60.44;101201.31;4346238;33;20289;-84
2021/03/29 11:58:01;;;;;;;;;;;;;;;22.79;60.44;101204.44;4345633;33;30352;-84
2021/03/29 12:00:37;;;;;;;;;;;;;;;22.63;60.42;101204.50;4347573;32;20030;-84
2021/03/29 12:05:35;;;;;;;;;;;;;;;22.64;60.43;101198.25;4346219;33;20522;-84
2021/03/29 12:13:12;;;;;;;;;;;;;;;22.36;60.42;101191.06;4347608;33;20001;-84
2021/03/29 12:15:39;;;;;;;;;;;;;;;22.41;60.42;101188.12;4346206;33;20328;-84
2021/03/29 12:18:05;;;;;;;;;;;;;;;22.33;60.42;101183.28;4346147;33;19995;-85
2021/03/29 12:20:30;;;;;;;;;;;;;;;22.60;60.43;101164.88;4346029;33;20023;-84
2021/03/29 12:22:55;;;;;;;;;;;;;;;22.02;60.41;101169.09;4347193;33;19987;-84
2021/03/29 12:25:21;;;;;;;;;;;;;;;21.96;60.40;101171.22;4346063;33;20010;-85
2021/03/29 12:27:46;;;;;;;;;;;;;;;21.85;60.38;101166.53;4346247;33;20004;-85
2021/03/29 12:30:13;;;;;;;;;;;;;;;21.72;60.38;101169.00;4345563;33;19991;-85
2021/03/29 12:32:39;;;;;;;;;;;;;;;21.60;60.37;101152.97;4346145;33;20023;-86
2021/03/29 12:35:04;;;;;;;;;;;;;;;21.90;60.39;101158.31;4333659;33;20011;-85
2021/03/29 12:37:32;;;;;;;;;;;;;;;21.92;60.39;101157.28;4345817;33;19987;-86
2021/03/29 12:40:02;;;;;;;;;;;;;;;21.61;60.37;101157.31;4346345;33;20034;-85
2021/03/29 12:42:30;;;;;;;;;;;;;;;21.37;60.36;101156.88;4346236;33;19984;-86
2021/03/29 12:44:56;;;;;;;;;;;;;;;21.27;60.36;101150.34;4334027;33;20014;-84
2021/03/29 12:47:29;;;;;;;;;;;;;;;21.52;60.37;101157.81;4333415;33;19999;-84